createdAt,value
2018-08-09T00:00:27.429Z,24.97
2018-08-09T00:01:27.548Z,24.98
2018-08-09T00:02:27.281Z,24.98
2018-08-09T00:03:27.488Z,24.97
2018-08-09T00:04:27.257Z,24.97
2018-08-09T00:05:27.556Z,24.97
2018-08-09T00:06:27.469Z,24.96
2018-08-09T00:07:27.431Z,24.98
2018-08-09T00:08:27.341Z,24.97
2018-08-09T00:09:27.476Z,24.96
2018-08-09T00:10:27.457Z,24.97
2018-08-09T00:11:27.404Z,24.96
2018-08-09T00:12:27.384Z,24.97
2018-08-09T00:13:27.271Z,24.97
2018-08-09T00:14:27.588Z,24.97
2018-08-09T00:15:27.681Z,24.97
2018-08-09T00:16:27.394Z,24.97
2018-08-09T00:17:27.441Z,24.97
2018-08-09T00:18:27.436Z,24.97
2018-08-09T00:19:27.416Z,24.97
2018-08-09T00:20:27.386Z,24.96
2018-08-09T00:21:27.404Z,24.97
2018-08-09T00:22:27.245Z,24.98
2018-08-09T00:23:27.484Z,24.97
2018-08-09T00:24:27.751Z,24.96
2018-08-09T00:25:27.334Z,24.97
2018-08-09T00:26:27.480Z,24.95
2018-08-09T00:27:27.488Z,24.96
2018-08-09T00:28:27.379Z,24.97
2018-08-09T00:29:27.452Z,24.96
2018-08-09T00:30:27.514Z,24.95
2018-08-09T00:31:27.287Z,24.96
2018-08-09T00:32:27.497Z,24.97
2018-08-09T00:33:27.668Z,24.95
2018-08-09T00:34:27.497Z,24.95
2018-08-09T00:35:27.502Z,24.96
2018-08-09T00:36:27.328Z,24.96
2018-08-09T00:37:27.575Z,24.96
2018-08-09T00:38:27.492Z,24.95
2018-08-09T00:39:27.570Z,24.96
2018-08-09T00:40:27.324Z,24.95
2018-08-09T00:41:27.431Z,24.96
2018-08-09T00:42:27.448Z,24.96
2018-08-09T00:43:27.356Z,24.96
2018-08-09T00:44:27.646Z,24.96
2018-08-09T00:45:27.352Z,24.95
2018-08-09T00:46:27.334Z,24.95
2018-08-09T00:47:27.568Z,24.95
2018-08-09T00:48:27.410Z,24.96
2018-08-09T00:49:27.421Z,24.96
2018-08-09T00:50:27.300Z,24.95
2018-08-09T00:51:27.377Z,24.95
2018-08-09T00:52:27.334Z,24.95
2018-08-09T00:53:27.445Z,24.95
2018-08-09T00:54:27.329Z,24.95
2018-08-09T00:55:27.461Z,24.95
2018-08-09T00:56:27.276Z,24.95
2018-08-09T00:57:27.485Z,24.95
2018-08-09T00:58:27.309Z,24.95
2018-08-09T00:59:27.362Z,24.95
2018-08-09T01:00:27.393Z,24.94
2018-08-09T01:01:27.478Z,24.95
2018-08-09T01:02:27.521Z,24.95
2018-08-09T01:03:27.419Z,24.95
2018-08-09T01:04:27.454Z,24.95
2018-08-09T01:05:27.330Z,24.95
2018-08-09T01:06:27.460Z,24.94
2018-08-09T01:07:27.232Z,24.95
2018-08-09T01:08:27.421Z,24.94
2018-08-09T01:09:27.273Z,24.94
2018-08-09T01:10:27.420Z,24.94
2018-08-09T01:11:27.356Z,24.94
2018-08-09T01:12:27.407Z,24.94
2018-08-09T01:13:27.316Z,24.94
2018-08-09T01:14:27.493Z,24.95
2018-08-09T01:15:27.559Z,24.94
2018-08-09T01:16:27.241Z,24.95
2018-08-09T01:17:27.336Z,24.94
2018-08-09T01:18:27.329Z,24.95
2018-08-09T01:19:27.764Z,24.95
2018-08-09T01:20:27.401Z,24.94
2018-08-09T01:21:27.538Z,24.95
2018-08-09T01:22:27.459Z,24.94
2018-08-09T01:23:27.356Z,24.94
2018-08-09T01:24:27.283Z,24.93
2018-08-09T01:25:27.333Z,24.94
2018-08-09T01:26:27.260Z,24.94
2018-08-09T01:27:27.176Z,24.95
2018-08-09T01:28:27.282Z,24.93
2018-08-09T01:29:27.325Z,24.93
2018-08-09T01:30:27.576Z,24.94
2018-08-09T01:31:27.503Z,24.94
2018-08-09T01:32:27.367Z,24.93
2018-08-09T01:33:27.481Z,24.93
2018-08-09T01:34:27.706Z,24.94
2018-08-09T01:35:27.388Z,24.94
2018-08-09T01:36:27.187Z,24.93
2018-08-09T01:37:27.445Z,24.94
2018-08-09T01:38:27.393Z,24.94
2018-08-09T01:39:27.634Z,24.94
2018-08-09T01:40:27.364Z,24.93
2018-08-09T01:41:27.386Z,24.94
2018-08-09T01:42:27.406Z,24.93
2018-08-09T01:43:27.541Z,24.93
2018-08-09T01:44:27.649Z,24.94
2018-08-09T01:45:27.351Z,24.94
2018-08-09T01:46:27.333Z,24.93
2018-08-09T01:47:27.306Z,24.93
2018-08-09T01:48:27.449Z,24.93
2018-08-09T01:49:27.583Z,24.93
2018-08-09T01:50:27.360Z,24.93
2018-08-09T01:51:27.378Z,24.93
2018-08-09T01:52:27.494Z,24.93
2018-08-09T01:53:27.345Z,24.92
2018-08-09T01:54:27.476Z,24.92
2018-08-09T01:55:27.302Z,24.93
2018-08-09T01:56:27.320Z,24.92
2018-08-09T01:57:27.315Z,24.92
2018-08-09T01:58:27.552Z,24.93
2018-08-09T01:59:27.346Z,24.92
2018-08-09T02:00:27.245Z,24.92
2018-08-09T02:01:27.338Z,24.92
2018-08-09T02:02:27.251Z,24.93
2018-08-09T02:03:27.366Z,24.92
2018-08-09T02:04:27.737Z,24.93
2018-08-09T02:05:27.256Z,24.92
2018-08-09T02:06:27.645Z,24.92
2018-08-09T02:07:27.217Z,24.92
2018-08-09T02:08:27.400Z,24.93
2018-08-09T02:09:27.457Z,24.93
2018-08-09T02:10:27.242Z,24.93
2018-08-09T02:11:27.314Z,24.93
2018-08-09T02:12:27.412Z,24.92
2018-08-09T02:13:27.390Z,24.92
2018-08-09T02:14:27.287Z,24.93
2018-08-09T02:15:27.402Z,24.92
2018-08-09T02:16:27.250Z,24.93
2018-08-09T02:17:27.491Z,24.92
2018-08-09T02:18:27.274Z,24.92
2018-08-09T02:19:27.605Z,24.93
2018-08-09T02:20:27.326Z,24.92
2018-08-09T02:21:27.249Z,24.92
2018-08-09T02:22:27.432Z,24.92
2018-08-09T02:23:27.390Z,24.92
2018-08-09T02:24:27.434Z,24.92
2018-08-09T02:25:27.255Z,24.91
2018-08-09T02:26:27.630Z,24.92
2018-08-09T02:27:27.369Z,24.92
2018-08-09T02:28:27.369Z,24.92
2018-08-09T02:29:27.324Z,24.92
2018-08-09T02:30:27.520Z,24.92
2018-08-09T02:31:27.360Z,24.91
2018-08-09T02:32:27.335Z,24.91
2018-08-09T02:33:27.398Z,24.92
2018-08-09T02:34:27.316Z,24.91
2018-08-09T02:35:27.276Z,24.92
2018-08-09T02:36:27.450Z,24.92
2018-08-09T02:37:27.297Z,24.91
2018-08-09T02:38:27.437Z,24.92
2018-08-09T02:39:27.316Z,24.92
2018-08-09T02:40:27.481Z,24.92
2018-08-09T02:41:27.448Z,24.92
2018-08-09T02:42:27.300Z,24.93
2018-08-09T02:43:27.256Z,24.92
2018-08-09T02:44:27.316Z,24.92
2018-08-09T02:45:27.356Z,24.91
2018-08-09T02:46:27.482Z,24.92
2018-08-09T02:47:27.358Z,24.92
2018-08-09T02:48:27.499Z,24.92
2018-08-09T02:49:27.342Z,24.91
2018-08-09T02:50:27.432Z,24.91
2018-08-09T02:51:27.566Z,24.91
2018-08-09T02:52:27.161Z,24.91
2018-08-09T02:53:27.355Z,24.91
2018-08-09T02:54:27.372Z,24.91
2018-08-09T02:55:27.332Z,24.92
2018-08-09T02:56:27.331Z,24.92
2018-08-09T02:57:27.356Z,24.91
2018-08-09T02:58:27.453Z,24.92
2018-08-09T02:59:27.441Z,24.91
2018-08-09T03:00:27.563Z,24.91
2018-08-09T03:01:27.348Z,24.91
2018-08-09T03:02:27.703Z,24.91
2018-08-09T03:03:27.319Z,24.91
2018-08-09T03:04:27.237Z,24.92
2018-08-09T03:05:27.296Z,24.9
2018-08-09T03:06:27.360Z,24.91
2018-08-09T03:07:27.301Z,24.91
2018-08-09T03:08:27.309Z,24.91
2018-08-09T03:09:27.458Z,24.9
2018-08-09T03:10:27.251Z,24.91
2018-08-09T03:11:27.445Z,24.91
2018-08-09T03:12:27.493Z,24.91
2018-08-09T03:13:27.530Z,24.91
2018-08-09T03:14:27.645Z,24.91
2018-08-09T03:15:27.638Z,24.9
2018-08-09T03:16:27.523Z,24.91
2018-08-09T03:17:27.393Z,24.91
2018-08-09T03:18:27.369Z,24.91
2018-08-09T03:19:27.331Z,24.9
2018-08-09T03:20:27.267Z,24.9
2018-08-09T03:21:27.506Z,24.91
2018-08-09T03:22:27.425Z,24.9
2018-08-09T03:23:27.341Z,24.9
2018-08-09T03:24:27.524Z,24.9
2018-08-09T03:25:27.819Z,24.91
2018-08-09T03:26:27.707Z,24.9
2018-08-09T03:27:27.357Z,24.9
2018-08-09T03:28:27.144Z,24.91
2018-08-09T03:29:27.341Z,24.9
2018-08-09T03:30:27.674Z,24.91
2018-08-09T03:31:27.218Z,24.91
2018-08-09T03:32:27.756Z,24.9
2018-08-09T03:33:27.435Z,24.9
2018-08-09T03:34:27.345Z,24.91
2018-08-09T03:35:27.647Z,24.9
2018-08-09T03:36:27.246Z,24.91
2018-08-09T03:37:27.271Z,24.89
2018-08-09T03:38:27.255Z,24.9
2018-08-09T03:39:27.313Z,24.9
2018-08-09T03:40:27.267Z,24.91
2018-08-09T03:41:27.420Z,24.9
2018-08-09T03:42:27.434Z,24.9
2018-08-09T03:43:27.474Z,24.9
2018-08-09T03:44:27.347Z,24.89
2018-08-09T03:45:27.240Z,24.91
2018-08-09T03:46:27.173Z,24.9
2018-08-09T03:47:27.268Z,24.9
2018-08-09T03:48:27.556Z,24.9
2018-08-09T03:49:27.411Z,24.9
2018-08-09T03:50:27.347Z,24.89
2018-08-09T03:51:27.449Z,24.9
2018-08-09T03:52:27.421Z,24.9
2018-08-09T03:53:27.408Z,24.89
2018-08-09T03:54:27.388Z,24.9
2018-08-09T03:55:27.199Z,24.9
2018-08-09T03:56:27.426Z,24.9
2018-08-09T03:57:27.447Z,24.9
2018-08-09T03:58:27.287Z,24.9
2018-08-09T03:59:27.288Z,24.89
2018-08-09T04:00:27.438Z,24.9
2018-08-09T04:01:27.254Z,24.9
2018-08-09T04:02:27.432Z,24.89
2018-08-09T04:03:27.471Z,24.89
2018-08-09T04:04:27.105Z,24.89
2018-08-09T04:05:27.349Z,24.9
2018-08-09T04:06:27.296Z,24.9
2018-08-09T04:07:27.219Z,24.89
2018-08-09T04:08:27.228Z,24.89
2018-08-09T04:09:27.268Z,24.89
2018-08-09T04:10:27.289Z,24.89
2018-08-09T04:11:27.388Z,24.9
2018-08-09T04:12:27.250Z,24.89
2018-08-09T04:13:27.269Z,24.89
2018-08-09T04:14:27.404Z,24.89
2018-08-09T04:15:27.219Z,24.89
2018-08-09T04:16:27.290Z,24.89
2018-08-09T04:17:27.594Z,24.89
2018-08-09T04:18:27.314Z,24.89
2018-08-09T04:19:27.271Z,24.88
2018-08-09T04:20:27.323Z,24.89
2018-08-09T04:21:27.186Z,24.89
2018-08-09T04:22:27.285Z,24.89
2018-08-09T04:23:27.295Z,24.88
2018-08-09T04:24:27.332Z,24.88
2018-08-09T04:25:27.265Z,24.89
2018-08-09T04:26:27.598Z,24.89
2018-08-09T04:27:27.211Z,24.89
2018-08-09T04:28:27.414Z,24.88
2018-08-09T04:29:27.243Z,24.88
2018-08-09T04:30:27.417Z,24.88
2018-08-09T04:31:27.137Z,24.88
2018-08-09T04:32:27.360Z,24.88
2018-08-09T04:33:27.448Z,24.88
2018-08-09T04:34:27.353Z,24.88
2018-08-09T04:35:27.452Z,24.88
2018-08-09T04:36:27.406Z,24.88
2018-08-09T04:37:27.360Z,24.88
2018-08-09T04:38:27.325Z,24.88
2018-08-09T04:39:27.231Z,24.88
2018-08-09T04:40:27.240Z,24.88
2018-08-09T04:41:27.335Z,24.88
2018-08-09T04:42:27.266Z,24.88
2018-08-09T04:43:27.339Z,24.88
2018-08-09T04:44:27.545Z,24.88
2018-08-09T04:45:27.436Z,24.88
2018-08-09T04:46:27.375Z,24.88
2018-08-09T04:47:27.249Z,24.88
2018-08-09T04:48:27.480Z,24.88
2018-08-09T04:49:27.315Z,24.87
2018-08-09T04:50:27.400Z,24.88
2018-08-09T04:51:27.380Z,24.88
2018-08-09T04:52:27.318Z,24.88
2018-08-09T04:53:27.255Z,24.88
2018-08-09T04:54:27.453Z,24.88
2018-08-09T04:55:27.653Z,24.89
2018-08-09T04:56:27.289Z,24.87
2018-08-09T04:57:27.620Z,24.88
2018-08-09T04:58:27.357Z,24.88
2018-08-09T04:59:27.324Z,24.88
2018-08-09T05:00:27.256Z,24.88
2018-08-09T05:01:27.402Z,24.88
2018-08-09T05:02:27.450Z,24.88
2018-08-09T05:03:27.370Z,24.88
2018-08-09T05:04:27.443Z,24.89
2018-08-09T05:05:27.425Z,24.88
2018-08-09T05:06:27.214Z,24.88
2018-08-09T05:07:27.202Z,24.88
2018-08-09T05:08:27.368Z,24.88
2018-08-09T05:09:27.429Z,24.88
2018-08-09T05:10:27.380Z,24.89
2018-08-09T05:11:27.237Z,24.88
2018-08-09T05:12:27.320Z,24.88
2018-08-09T05:13:27.465Z,24.88
2018-08-09T05:14:27.324Z,24.88
2018-08-09T05:15:27.269Z,24.88
2018-08-09T05:16:27.199Z,24.87
2018-08-09T05:17:27.270Z,24.88
2018-08-09T05:18:27.284Z,24.88
2018-08-09T05:19:27.428Z,24.88
2018-08-09T05:20:27.253Z,24.88
2018-08-09T05:21:27.441Z,24.88
2018-08-09T05:22:27.261Z,24.88
2018-08-09T05:23:27.425Z,24.88
2018-08-09T05:24:27.304Z,24.87
2018-08-09T05:25:27.218Z,24.88
2018-08-09T05:26:27.280Z,24.88
2018-08-09T05:27:27.273Z,24.87
2018-08-09T05:28:27.474Z,24.88
2018-08-09T05:29:27.454Z,24.88
2018-08-09T05:30:27.359Z,24.87
2018-08-09T05:31:27.224Z,24.88
2018-08-09T05:32:27.437Z,24.88
2018-08-09T05:33:27.371Z,24.88
2018-08-09T05:34:27.333Z,24.87
2018-08-09T05:35:27.593Z,24.87
2018-08-09T05:36:27.297Z,24.88
2018-08-09T05:37:27.343Z,24.87
2018-08-09T05:38:27.439Z,24.87
2018-08-09T05:39:27.402Z,24.87
2018-08-09T05:40:27.264Z,24.87
2018-08-09T05:41:27.620Z,24.88
2018-08-09T05:42:27.370Z,24.87
2018-08-09T05:43:27.398Z,24.88
2018-08-09T05:44:27.237Z,24.88
2018-08-09T05:45:27.344Z,24.87
2018-08-09T05:46:27.358Z,24.88
2018-08-09T05:47:27.260Z,24.87
2018-08-09T05:48:27.383Z,24.87
2018-08-09T05:49:27.382Z,24.87
2018-08-09T05:50:27.300Z,24.87
2018-08-09T05:51:27.280Z,24.86
2018-08-09T05:52:27.297Z,24.88
2018-08-09T05:53:27.453Z,24.87
2018-08-09T05:54:27.181Z,24.87
2018-08-09T05:55:28.107Z,24.87
2018-08-09T05:56:27.437Z,24.87
2018-08-09T05:57:27.968Z,24.87
2018-08-09T05:58:27.299Z,24.87
2018-08-09T05:59:27.368Z,24.87
2018-08-09T06:00:27.584Z,24.87
2018-08-09T06:01:27.262Z,24.88
2018-08-09T06:02:27.369Z,24.87
2018-08-09T06:03:27.238Z,24.87
2018-08-09T06:04:27.616Z,24.87
2018-08-09T06:05:27.185Z,24.87
2018-08-09T06:06:27.483Z,24.87
2018-08-09T06:07:27.428Z,24.87
2018-08-09T06:08:27.405Z,24.87
2018-08-09T06:09:27.342Z,24.87
2018-08-09T06:10:27.391Z,24.87
2018-08-09T06:11:27.289Z,24.87
2018-08-09T06:12:27.223Z,24.87
2018-08-09T06:13:27.390Z,24.87
2018-08-09T06:14:27.342Z,24.88
2018-08-09T06:15:27.352Z,24.88
2018-08-09T06:16:27.255Z,24.87
2018-08-09T06:17:27.309Z,24.87
2018-08-09T06:18:27.417Z,24.88
2018-08-09T06:19:27.316Z,24.88
2018-08-09T06:20:27.433Z,24.88
2018-08-09T06:21:27.267Z,24.88
2018-08-09T06:22:27.305Z,24.87
2018-08-09T06:23:27.407Z,24.87
2018-08-09T06:24:27.258Z,24.87
2018-08-09T06:25:27.428Z,24.87
2018-08-09T06:26:27.421Z,24.87
2018-08-09T06:27:27.414Z,24.87
2018-08-09T06:28:27.260Z,24.87
2018-08-09T06:29:27.230Z,24.87
2018-08-09T06:30:27.789Z,24.88
2018-08-09T06:31:27.200Z,24.87
2018-08-09T06:32:27.375Z,24.87
2018-08-09T06:33:27.401Z,24.87
2018-08-09T06:34:27.287Z,24.87
2018-08-09T06:35:27.283Z,24.87
2018-08-09T06:36:27.456Z,24.86
2018-08-09T06:37:27.327Z,24.87
2018-08-09T06:38:27.374Z,24.86
2018-08-09T06:39:27.227Z,24.86
2018-08-09T06:40:27.314Z,24.87
2018-08-09T06:41:27.415Z,24.86
2018-08-09T06:42:27.311Z,24.86
2018-08-09T06:43:27.332Z,24.87
2018-08-09T06:44:27.318Z,24.86
2018-08-09T06:45:27.516Z,24.87
2018-08-09T06:46:27.241Z,24.87
2018-08-09T06:47:27.687Z,24.87
2018-08-09T06:48:27.405Z,24.86
2018-08-09T06:49:27.354Z,24.86
2018-08-09T06:50:27.349Z,24.87
2018-08-09T06:51:27.663Z,24.86
2018-08-09T06:52:27.306Z,24.86
2018-08-09T06:53:27.419Z,24.86
2018-08-09T06:54:27.431Z,24.86
2018-08-09T06:55:27.777Z,24.86
2018-08-09T06:56:27.169Z,24.86
2018-08-09T06:57:27.928Z,24.86
2018-08-09T06:58:27.678Z,24.87
2018-08-09T06:59:27.335Z,24.86
2018-08-09T07:00:27.555Z,24.86
2018-08-09T07:01:27.329Z,24.86
2018-08-09T07:02:27.405Z,24.86
2018-08-09T07:03:27.407Z,24.85
2018-08-09T07:04:27.382Z,24.85
2018-08-09T07:05:27.253Z,24.86
2018-08-09T07:06:27.153Z,24.86
2018-08-09T07:07:27.372Z,24.86
2018-08-09T07:08:27.645Z,24.86
2018-08-09T07:09:27.340Z,24.86
2018-08-09T07:10:27.252Z,24.86
2018-08-09T07:11:27.286Z,24.86
2018-08-09T07:12:27.412Z,24.86
2018-08-09T07:13:27.612Z,24.86
2018-08-09T07:14:27.228Z,24.85
2018-08-09T07:15:27.174Z,24.85
2018-08-09T07:16:27.585Z,24.86
2018-08-09T07:17:27.287Z,24.86
2018-08-09T07:18:27.259Z,24.86
2018-08-09T07:19:27.428Z,24.86
2018-08-09T07:20:27.549Z,24.85
2018-08-09T07:21:27.254Z,24.86
2018-08-09T07:22:27.533Z,24.86
2018-08-09T07:23:27.333Z,24.86
2018-08-09T07:24:27.245Z,24.85
2018-08-09T07:25:27.338Z,24.86
2018-08-09T07:26:27.386Z,24.85
2018-08-09T07:27:27.471Z,24.85
2018-08-09T07:28:27.379Z,24.86
2018-08-09T07:29:27.642Z,24.85
2018-08-09T07:30:27.459Z,24.86
2018-08-09T07:31:27.615Z,24.86
2018-08-09T07:32:27.396Z,24.86
2018-08-09T07:33:27.360Z,24.86
2018-08-09T07:34:27.397Z,24.86
2018-08-09T07:35:27.344Z,24.86
2018-08-09T07:36:27.519Z,24.85
2018-08-09T07:37:27.396Z,24.85
2018-08-09T07:38:27.252Z,24.86
2018-08-09T07:39:27.224Z,24.86
2018-08-09T07:40:27.301Z,24.86
2018-08-09T07:41:27.416Z,24.85
2018-08-09T07:42:27.208Z,24.86
2018-08-09T07:43:27.409Z,24.84
2018-08-09T07:44:27.152Z,24.85
2018-08-09T07:45:27.157Z,24.85
2018-08-09T07:46:27.365Z,24.86
2018-08-09T07:47:27.172Z,24.85
2018-08-09T07:48:27.385Z,24.85
2018-08-09T07:49:27.276Z,24.87
2018-08-09T07:50:27.293Z,24.86
2018-08-09T07:51:27.360Z,24.85
2018-08-09T07:52:27.301Z,24.85
2018-08-09T07:53:27.259Z,24.86
2018-08-09T07:54:27.402Z,24.86
2018-08-09T07:55:27.167Z,24.86
2018-08-09T07:56:27.239Z,24.85
2018-08-09T07:57:27.184Z,24.85
2018-08-09T07:58:27.333Z,24.85
2018-08-09T07:59:27.368Z,24.85
2018-08-09T08:00:27.193Z,24.86
2018-08-09T08:01:27.362Z,24.85
2018-08-09T08:02:27.286Z,24.86
2018-08-09T08:03:27.325Z,24.86
2018-08-09T08:04:27.489Z,24.85
2018-08-09T08:05:27.408Z,24.85
2018-08-09T08:06:27.242Z,24.86
2018-08-09T08:07:27.280Z,24.85
2018-08-09T08:08:27.416Z,24.85
2018-08-09T08:09:27.413Z,24.86
2018-08-09T08:10:27.230Z,24.86
2018-08-09T08:11:27.427Z,24.86
2018-08-09T08:12:27.314Z,24.85
2018-08-09T08:13:27.528Z,24.86
2018-08-09T08:14:27.309Z,24.85
2018-08-09T08:15:27.163Z,24.86
2018-08-09T08:16:27.693Z,24.85
2018-08-09T08:17:27.447Z,24.85
2018-08-09T08:18:27.380Z,24.87
2018-08-09T08:19:27.705Z,24.89
2018-08-09T08:20:27.364Z,24.89
2018-08-09T08:21:27.378Z,24.89
2018-08-09T08:22:27.270Z,24.9
2018-08-09T08:23:27.317Z,24.91
2018-08-09T08:24:27.416Z,24.92
2018-08-09T08:25:27.347Z,24.92
2018-08-09T08:26:27.518Z,24.93
2018-08-09T08:27:27.285Z,24.95
2018-08-09T08:28:27.541Z,24.96
2018-08-09T08:29:27.336Z,24.97
2018-08-09T08:30:27.300Z,24.97
2018-08-09T08:31:27.356Z,24.98
2018-08-09T08:32:27.408Z,24.99
2018-08-09T08:33:27.164Z,25
2018-08-09T08:34:27.299Z,25
2018-08-09T08:35:27.615Z,25
2018-08-09T08:36:27.554Z,25.02
2018-08-09T08:37:27.381Z,25.02
2018-08-09T08:38:27.194Z,25.02
2018-08-09T08:39:27.387Z,25.02
2018-08-09T08:40:27.222Z,25.03
2018-08-09T08:41:27.415Z,25.02
2018-08-09T08:42:27.160Z,25.02
2018-08-09T08:43:27.386Z,25.03
2018-08-09T08:44:27.353Z,25.01
2018-08-09T08:45:27.433Z,25.03
2018-08-09T08:46:27.245Z,25
2018-08-09T08:47:27.477Z,25
2018-08-09T08:48:27.596Z,24.98
2018-08-09T08:49:27.262Z,24.98
2018-08-09T08:50:27.256Z,24.96
2018-08-09T08:51:27.271Z,24.96
2018-08-09T08:52:27.433Z,24.94
2018-08-09T08:53:27.418Z,24.94
2018-08-09T08:54:27.389Z,24.94
2018-08-09T08:55:27.292Z,24.93
2018-08-09T08:56:27.327Z,24.93
2018-08-09T08:57:27.303Z,24.94
2018-08-09T08:58:27.294Z,24.93
2018-08-09T08:59:27.184Z,24.93
2018-08-09T09:00:27.089Z,24.93
2018-08-09T09:01:27.276Z,24.93
2018-08-09T09:02:27.299Z,24.92
2018-08-09T09:03:27.292Z,24.92
2018-08-09T09:04:27.270Z,24.92
2018-08-09T09:05:27.230Z,24.91
2018-08-09T09:06:27.385Z,24.91
2018-08-09T09:07:27.377Z,24.91
2018-08-09T09:08:27.183Z,24.9
2018-08-09T09:09:27.197Z,24.91
2018-08-09T09:10:27.332Z,24.91
2018-08-09T09:11:27.121Z,24.9
2018-08-09T09:12:27.236Z,24.91
2018-08-09T09:13:27.239Z,24.9
2018-08-09T09:14:27.404Z,24.9
2018-08-09T09:15:27.191Z,24.9
2018-08-09T09:16:27.233Z,24.9
2018-08-09T09:17:27.264Z,24.9
2018-08-09T09:18:27.457Z,24.91
2018-08-09T09:19:27.203Z,24.89
2018-08-09T09:20:27.223Z,24.9
2018-08-09T09:21:27.361Z,24.89
2018-08-09T09:22:27.176Z,24.9
2018-08-09T09:23:27.179Z,24.9
2018-08-09T09:24:27.228Z,24.9
2018-08-09T09:25:27.376Z,24.9
2018-08-09T09:26:27.188Z,24.89
2018-08-09T09:27:27.307Z,24.89
2018-08-09T09:28:27.256Z,24.89
2018-08-09T09:29:27.284Z,24.89
2018-08-09T09:30:27.411Z,24.9
2018-08-09T09:31:27.197Z,24.9
2018-08-09T09:32:27.180Z,24.9
2018-08-09T09:33:27.277Z,24.9
2018-08-09T09:34:27.192Z,24.89
2018-08-09T09:35:27.278Z,24.9
2018-08-09T09:36:27.260Z,24.9
2018-08-09T09:37:27.349Z,24.9
2018-08-09T09:38:27.328Z,24.9
2018-08-09T09:39:27.335Z,24.9
2018-08-09T09:40:27.338Z,24.91
2018-08-09T09:41:27.426Z,24.9
2018-08-09T09:42:27.165Z,24.9
2018-08-09T09:43:27.342Z,24.9
2018-08-09T09:44:27.206Z,24.9
2018-08-09T09:45:27.337Z,24.9
2018-08-09T09:46:27.350Z,24.9
2018-08-09T09:47:27.325Z,24.91
2018-08-09T09:48:27.237Z,24.9
2018-08-09T09:49:27.530Z,24.9
2018-08-09T09:50:27.287Z,24.9
2018-08-09T09:51:27.155Z,24.9
2018-08-09T09:52:27.233Z,24.9
2018-08-09T09:53:27.281Z,24.89
2018-08-09T09:54:27.263Z,24.89
2018-08-09T09:55:27.339Z,24.9
2018-08-09T09:56:27.265Z,24.89
2018-08-09T09:57:27.148Z,24.89
2018-08-09T09:58:27.144Z,24.9
2018-08-09T09:59:27.349Z,24.89
2018-08-09T10:00:27.107Z,24.9
2018-08-09T10:01:27.194Z,24.9
2018-08-09T10:02:27.392Z,24.9
2018-08-09T10:03:27.316Z,24.9
2018-08-09T10:04:27.295Z,24.9
2018-08-09T10:05:27.164Z,24.89
2018-08-09T10:06:27.107Z,24.89
2018-08-09T10:07:27.237Z,24.89
2018-08-09T10:08:27.361Z,24.9
2018-08-09T10:09:27.101Z,24.89
2018-08-09T10:10:27.387Z,24.91
2018-08-09T10:11:27.401Z,24.9
2018-08-09T10:12:27.361Z,24.9
2018-08-09T10:13:27.155Z,24.89
2018-08-09T10:14:27.635Z,24.89
2018-08-09T10:15:27.168Z,24.89
2018-08-09T10:16:27.253Z,24.89
2018-08-09T10:17:27.227Z,24.89
2018-08-09T10:18:27.174Z,24.89
2018-08-09T10:19:27.214Z,24.89
2018-08-09T10:20:27.157Z,24.9
2018-08-09T10:21:27.276Z,24.89
2018-08-09T10:22:27.284Z,24.89
2018-08-09T10:23:27.122Z,24.9
2018-08-09T10:24:27.254Z,24.9
2018-08-09T10:25:27.194Z,24.9
2018-08-09T10:26:27.330Z,24.9
2018-08-09T10:27:27.220Z,24.89
2018-08-09T10:28:27.302Z,24.89
2018-08-09T10:29:27.375Z,24.89
2018-08-09T10:30:27.372Z,24.9
2018-08-09T10:31:27.236Z,24.89
2018-08-09T10:32:27.124Z,24.9
2018-08-09T10:33:27.363Z,24.9
2018-08-09T10:34:27.397Z,24.89
2018-08-09T10:35:27.291Z,24.89
2018-08-09T10:36:27.084Z,24.88
2018-08-09T10:37:27.256Z,24.9
2018-08-09T10:38:27.303Z,24.88
2018-08-09T10:39:27.344Z,24.89
2018-08-09T10:40:27.308Z,24.89
2018-08-09T10:41:27.301Z,24.89
2018-08-09T10:42:27.380Z,24.89
2018-08-09T10:43:27.431Z,24.89
2018-08-09T10:44:27.226Z,24.89
2018-08-09T10:45:27.187Z,24.89
2018-08-09T10:46:27.160Z,24.9
2018-08-09T10:47:27.220Z,24.89
2018-08-09T10:48:27.256Z,24.89
2018-08-09T10:49:27.270Z,24.89
2018-08-09T10:50:27.215Z,24.9
2018-08-09T10:51:27.478Z,24.89
2018-08-09T10:52:27.206Z,24.89
2018-08-09T10:53:27.310Z,24.9
2018-08-09T10:54:27.532Z,24.9
2018-08-09T10:55:27.376Z,24.89
2018-08-09T10:56:27.422Z,24.89
2018-08-09T10:57:27.432Z,24.9
2018-08-09T10:58:27.193Z,24.9
2018-08-09T10:59:27.786Z,24.9
2018-08-09T11:00:27.282Z,24.9
2018-08-09T11:01:27.246Z,24.89
2018-08-09T11:02:27.415Z,24.89
2018-08-09T11:03:27.104Z,24.89
2018-08-09T11:04:27.277Z,24.89
2018-08-09T11:05:27.380Z,24.89
2018-08-09T11:06:27.117Z,24.89
2018-08-09T11:07:27.370Z,24.88
2018-08-09T11:08:27.272Z,24.89
2018-08-09T11:09:27.306Z,24.89
2018-08-09T11:10:27.185Z,24.89
2018-08-09T11:11:27.310Z,24.89
2018-08-09T11:12:27.272Z,24.89
2018-08-09T11:13:27.438Z,24.89
2018-08-09T11:14:27.230Z,24.89
2018-08-09T11:15:27.239Z,24.89
2018-08-09T11:16:27.236Z,24.88
2018-08-09T11:17:27.361Z,24.88
2018-08-09T11:18:27.213Z,24.9
2018-08-09T11:19:27.414Z,24.89
2018-08-09T11:20:27.136Z,24.88
2018-08-09T11:21:27.239Z,24.89
2018-08-09T11:22:27.303Z,24.88
2018-08-09T11:23:27.309Z,24.89
2018-08-09T11:24:27.319Z,24.88
2018-08-09T11:25:27.196Z,24.88
2018-08-09T11:26:27.256Z,24.89
2018-08-09T11:27:27.427Z,24.88
2018-08-09T11:28:27.318Z,24.88
2018-08-09T11:29:27.257Z,24.88
2018-08-09T11:30:27.137Z,24.89
2018-08-09T11:31:27.291Z,24.89
2018-08-09T11:32:27.115Z,24.89
2018-08-09T11:33:27.304Z,24.87
2018-08-09T11:34:27.278Z,24.89
2018-08-09T11:35:27.355Z,24.9
2018-08-09T11:36:27.189Z,24.91
2018-08-09T11:37:27.154Z,24.93
2018-08-09T11:38:27.334Z,24.93
2018-08-09T11:39:27.133Z,24.93
2018-08-09T11:40:27.376Z,24.95
2018-08-09T11:41:27.176Z,24.96
2018-08-09T11:42:27.135Z,24.98
2018-08-09T11:43:27.267Z,25
2018-08-09T11:44:27.152Z,24.99
2018-08-09T11:45:27.211Z,25.01
2018-08-09T11:46:27.347Z,25
2018-08-09T11:47:27.441Z,25
2018-08-09T11:48:27.176Z,25.01
2018-08-09T11:49:27.285Z,25.02
2018-08-09T11:50:27.272Z,25.02
2018-08-09T11:51:27.273Z,25.03
2018-08-09T11:52:27.210Z,25.04
2018-08-09T11:53:27.327Z,25.06
2018-08-09T11:54:27.221Z,25.08
2018-08-09T11:55:27.229Z,25.05
2018-08-09T11:56:27.355Z,25.1
2018-08-09T11:57:27.169Z,25.06
2018-08-09T11:58:27.298Z,25.04
2018-08-09T11:59:27.289Z,25.02
2018-08-09T12:00:27.361Z,25.01
2018-08-09T12:01:27.275Z,25.01
2018-08-09T12:02:27.356Z,25
2018-08-09T12:03:27.363Z,25
2018-08-09T12:04:27.379Z,24.99
2018-08-09T12:05:27.278Z,24.98
2018-08-09T12:06:27.330Z,24.98
2018-08-09T12:07:27.261Z,24.98
2018-08-09T12:08:27.173Z,24.97
2018-08-09T12:09:27.376Z,24.98
2018-08-09T12:10:27.218Z,24.97
2018-08-09T12:11:27.111Z,24.97
2018-08-09T12:12:27.146Z,24.97
2018-08-09T12:13:27.406Z,24.97
2018-08-09T12:14:29.584Z,24.96
2018-08-09T12:15:27.154Z,24.95
2018-08-09T12:16:27.392Z,24.97
2018-08-09T12:17:27.088Z,24.96
2018-08-09T12:18:27.567Z,24.96
2018-08-09T12:19:27.341Z,24.95
2018-08-09T12:20:27.309Z,24.95
2018-08-09T12:21:27.288Z,24.95
2018-08-09T12:22:27.340Z,24.95
2018-08-09T12:23:27.264Z,24.94
2018-08-09T12:24:27.193Z,24.96
2018-08-09T12:25:27.353Z,24.95
2018-08-09T12:26:27.424Z,24.95
2018-08-09T12:27:27.288Z,24.95
2018-08-09T12:28:27.198Z,24.95
2018-08-09T12:29:27.494Z,24.95
2018-08-09T12:30:27.224Z,24.95
2018-08-09T12:31:27.357Z,24.95
2018-08-09T12:32:27.278Z,24.94
2018-08-09T12:33:27.268Z,24.94
2018-08-09T12:34:27.229Z,24.95
2018-08-09T12:35:27.141Z,24.95
2018-08-09T12:36:27.354Z,24.94
2018-08-09T12:37:27.445Z,24.94
2018-08-09T12:38:27.250Z,24.94
2018-08-09T12:39:27.332Z,24.94
2018-08-09T12:40:27.208Z,24.94
2018-08-09T12:41:27.622Z,24.94
2018-08-09T12:42:27.129Z,24.94
2018-08-09T12:43:27.176Z,24.94
2018-08-09T12:44:27.334Z,24.94
2018-08-09T12:45:27.441Z,24.94
2018-08-09T12:46:27.217Z,24.95
2018-08-09T12:47:27.324Z,24.94
2018-08-09T12:48:27.267Z,24.95
2018-08-09T12:49:27.362Z,24.96
2018-08-09T12:50:27.187Z,24.94
2018-08-09T12:51:27.187Z,24.95
2018-08-09T12:52:27.302Z,24.95
2018-08-09T12:53:27.585Z,24.95
2018-08-09T12:54:27.257Z,24.96
2018-08-09T12:55:27.293Z,24.95
2018-08-09T12:56:27.147Z,24.95